EDT,Max TemperatureF,Mean TemperatureF,Min TemperatureF,Max Dew PointF,MeanDew PointF,Min DewpointF,Max Humidity, Mean Humidity, Min Humidity, Max Sea Level PressureIn, Mean Sea Level PressureIn, Min Sea Level PressureIn, Max VisibilityMiles, Mean VisibilityMiles, Min VisibilityMiles, Max Wind SpeedMPH, Mean Wind SpeedMPH, Max Gust SpeedMPH,PrecipitationIn, CloudCover, Events, WindDirDegrees
2012-10-1,66,47,28,49,39,28,100,80,37,29.98,29.91,29.86,10,9,0,7,1,,0.00,0,Fog,248
2012-10-2,75,55,35,48,40,32,100,69,25,29.99,29.92,29.87,10,10,2,7,1,,0.00,0,,58
2012-10-3,67,52,36,60,50,35,100,90,64,30.02,30.00,29.98,10,9,2,6,1,,0.00,7,Rain,113
2012-10-4,75,66,57,60,57,46,100,81,53,30.02,29.96,29.91,10,8,3,16,4,26,0.00,6,Rain,219
2012-10-5,59,51,43,46,37,28,82,61,35,29.98,29.93,29.87,10,10,10,15,10,25,0.00,4,,251
2012-10-6,47,42,37,42,37,29,100,85,57,30.10,29.95,29.84,10,9,2,16,8,25,0.00,7,Rain,273
2012-10-7,50,42,34,39,35,31,100,85,57,30.10,30.07,30.04,10,10,10,12,3,16,0.00,6,Rain,250
2012-10-8,57,43,29,32,29,25,88,56,37,30.09,30.04,29.98,10,10,10,15,6,23,0.00,2,,202
2012-10-9,62,52,41,49,38,30,97,59,41,29.97,29.83,29.72,10,10,7,23,10,33,0.00,6,Rain,198
2012-10-10,44,40,36,40,37,30,100,90,67,30.06,29.86,29.74,10,9,3,17,7,29,0.00,7,Rain,265
2012-10-11,50,38,27,45,36,27,100,89,74,30.16,30.01,29.88,10,9,4,16,5,23,0.00,5,Rain,242
2012-10-12,41,34,27,36,32,27,100,93,57,30.43,30.32,30.16,10,10,5,9,4,22,0.00,1,Rain-Snow,310
2012-10-13,52,38,25,52,38,25,100,96,71,30.33,30.07,29.79,10,8,2,12,3,18,0.00,6,Rain,168
2012-10-14,67,58,48,64,57,48,100,98,81,29.79,29.55,29.32,10,5,0,17,5,29,0.00,8,Fog-Rain,210
2012-10-15,47,42,36,47,41,36,99,90,76,29.92,29.70,29.40,10,9,3,21,12,32,0.00,7,Rain,300
2012-10-16,57,43,29,43,37,30,100,84,54,29.93,29.83,29.68,10,9,1,12,2,16,0.00,2,,156
2012-10-17,74,58,43,56,48,41,96,68,44,29.67,29.55,29.49,10,10,10,16,7,22,0.00,4,Rain,149
2012-10-18,59,50,42,58,50,40,98,91,80,29.61,29.43,29.30,10,10,7,20,11,28,0.00,7,Rain,155
2012-10-19,51,46,39,50,44,40,100,96,80,29.61,29.58,29.55,10,9,0,13,4,20,0.00,7,Fog-Rain,100
2012-10-20,58,50,41,50,44,39,100,88,55,29.85,29.69,29.57,10,7,0,12,3,16,0.00,6,Fog-Rain,299
2012-10-21,61,49,37,52,42,37,100,84,43,30.05,29.99,29.86,10,6,0,10,4,16,0.00,4,Fog,262
2012-10-22,72,53,34,59,46,34,100,82,49,30.05,30.02,29.97,10,9,3,7,1,,0.00,3,Rain,115
2012-10-23,57,54,52,57,55,52,100,100,99,30.03,29.99,29.95,10,4,1,13,6,17,0.00,8,Rain,78
2012-10-24,67,60,52,65,58,52,100,98,91,30.02,29.98,29.92,10,4,0,8,5,,0.00,8,Fog-Rain,117
2012-10-25,77,68,57,64,59,54,100,74,46,29.91,29.78,29.67,10,10,7,18,9,33,0.00,2,Rain,177
2012-10-26,54,42,29,54,36,28,100,78,43,30.27,30.13,29.77,10,9,2,17,10,26,0.00,4,Rain,284
2012-10-27,50,36,23,34,29,24,100,76,46,30.28,30.25,30.21,10,10,2,13,2,16,0.00,5,,329
2012-10-28,50,40,29,32,28,21,94,68,36,30.31,30.27,30.23,10,10,10,18,7,25,0.00,1,,353
2012-10-29,44,38,31,31,24,17,89,59,35,30.24,30.16,29.96,10,10,10,25,11,34,0.00,0,,343
2012-10-30,37,36,34,36,32,18,100,86,46,29.95,29.72,29.63,10,7,2,25,17,37,0.00,8,Rain-Snow,345
2012-10-31,41,38,34,38,36,33,99,94,84,29.66,29.62,29.60,10,8,2,21,11,28,0.00,8,Rain-Snow,323